createdAt,value
2018-07-12T00:03:51.014Z,2.85
2018-07-12T00:06:18.226Z,2.35
2018-07-12T00:08:45.453Z,2.10
2018-07-12T00:11:12.704Z,3.15
2018-07-12T00:13:40.441Z,2.58
2018-07-12T00:16:07.677Z,2.02
2018-07-12T00:18:34.881Z,2.25
2018-07-12T00:21:02.118Z,2.85
2018-07-12T00:23:29.354Z,1.80
2018-07-12T00:25:57.009Z,2.00
2018-07-12T00:28:24.239Z,2.17
2018-07-12T00:30:51.454Z,3.50
2018-07-12T00:33:18.690Z,2.70
2018-07-12T00:35:45.913Z,2.12
2018-07-12T00:38:14.078Z,2.72
2018-07-12T00:40:41.912Z,2.05
2018-07-12T00:43:09.130Z,2.12
2018-07-12T00:45:36.598Z,1.90
2018-07-12T00:48:04.245Z,3.42
2018-07-12T00:50:32.302Z,2.40
2018-07-12T00:52:59.974Z,2.10
2018-07-12T00:55:27.189Z,2.12
2018-07-12T00:57:54.870Z,2.22
2018-07-12T01:00:22.526Z,2.10
2018-07-12T01:02:49.741Z,2.10
2018-07-12T01:05:16.974Z,2.50
2018-07-12T01:07:44.198Z,2.22
2018-07-12T01:10:11.398Z,2.30
2018-07-12T01:12:39.262Z,2.75
2018-07-12T01:15:06.474Z,2.02
2018-07-12T01:17:33.725Z,2.02
2018-07-12T01:20:01.285Z,3.22
2018-07-12T01:22:28.506Z,1.98
2018-07-12T01:24:55.714Z,2.35
2018-07-12T01:27:23.169Z,2.22
2018-07-12T01:29:50.381Z,2.20
2018-07-12T01:32:17.617Z,1.87
2018-07-12T01:34:44.857Z,2.12
2018-07-12T01:37:12.434Z,2.27
2018-07-12T01:39:39.890Z,2.20
2018-07-12T01:42:07.102Z,2.77
2018-07-12T01:44:34.322Z,2.12
2018-07-12T01:47:01.771Z,2.40
2018-07-12T01:49:28.982Z,2.33
2018-07-12T01:51:57.437Z,2.60
2018-07-12T01:54:24.678Z,2.47
2018-07-12T01:56:52.014Z,3.90
2018-07-12T01:59:19.242Z,2.40
2018-07-12T02:01:46.450Z,2.80
2018-07-12T02:04:13.706Z,2.83
2018-07-12T02:06:40.951Z,2.87
2018-07-12T02:09:08.173Z,2.95
2018-07-12T02:11:40.184Z,3.40
2018-07-12T02:14:08.518Z,2.85
2018-07-12T02:16:35.723Z,4.03
2018-07-12T02:19:02.955Z,3.33
2018-07-12T02:21:30.181Z,2.75
2018-07-12T02:23:57.406Z,2.60
2018-07-12T02:26:25.016Z,2.70
2018-07-12T02:28:52.217Z,3.83
2018-07-12T02:31:19.425Z,2.50
2018-07-12T02:33:47.004Z,3.10
2018-07-12T02:36:14.229Z,2.70
2018-07-12T02:38:41.654Z,5.60
2018-07-12T02:41:08.916Z,2.65
2018-07-12T02:43:36.118Z,3.92
2018-07-12T02:46:03.625Z,3.12
2018-07-12T02:48:30.851Z,2.83
2018-07-12T02:50:58.070Z,2.98
2018-07-12T02:53:25.542Z,3.30
2018-07-12T02:55:52.763Z,3.05
2018-07-12T02:58:19.978Z,3.77
2018-07-12T03:00:49.931Z,4.25
2018-07-12T03:03:17.144Z,3.00
2018-07-12T03:05:44.357Z,5.00
2018-07-12T03:08:11.586Z,3.33
2018-07-12T03:10:39.117Z,3.02
2018-07-12T03:13:06.784Z,3.37
2018-07-12T03:15:34.262Z,3.37
2018-07-12T03:18:01.455Z,4.80
2018-07-12T03:20:28.666Z,4.12
2018-07-12T03:22:56.205Z,3.70
2018-07-12T03:25:23.419Z,4.37
2018-07-12T03:27:50.643Z,3.40
2018-07-12T03:30:17.882Z,3.70
2018-07-12T03:32:45.094Z,3.90
2018-07-12T03:35:12.354Z,3.83
2018-07-12T03:37:40.177Z,4.28
2018-07-12T03:40:07.386Z,3.92
2018-07-12T03:42:35.562Z,3.62
2018-07-12T03:45:02.787Z,4.12
2018-07-12T03:47:30.002Z,3.80
2018-07-12T03:49:57.238Z,4.70
2018-07-12T03:52:25.055Z,4.17
2018-07-12T03:54:52.277Z,4.40
2018-07-12T03:57:19.725Z,5.03
2018-07-12T03:59:46.944Z,4.55
2018-07-12T04:02:14.163Z,5.92
2018-07-12T04:04:41.724Z,5.33
2018-07-12T04:07:08.967Z,6.42
2018-07-12T04:09:36.183Z,5.75
2018-07-12T04:12:03.810Z,5.62
2018-07-12T04:14:31.018Z,6.00
2018-07-12T04:16:58.246Z,6.53
2018-07-12T04:19:25.474Z,6.20
2018-07-12T04:21:52.691Z,5.92
2018-07-12T04:24:19.918Z,6.80
2018-07-12T04:26:47.316Z,5.60
2018-07-12T04:29:14.533Z,6.47
2018-07-12T04:31:42.367Z,7.08
2018-07-12T04:34:09.600Z,6.12
2018-07-12T04:36:36.914Z,6.47
2018-07-12T04:39:05.122Z,6.67
2018-07-12T04:41:32.509Z,6.97
2018-07-12T04:43:59.725Z,5.83
2018-07-12T04:46:26.955Z,6.90
2018-07-12T04:48:54.170Z,6.67
2018-07-12T04:51:21.694Z,7.62
2018-07-12T04:53:49.574Z,6.85
2018-07-12T04:56:16.821Z,7.12
2018-07-12T04:58:44.052Z,6.78
2018-07-12T05:01:11.286Z,6.10
2018-07-12T05:03:38.530Z,7.55
2018-07-12T05:06:07.066Z,6.95
2018-07-12T05:08:34.322Z,7.05
2018-07-12T05:11:01.538Z,7.33
2018-07-12T05:13:29.180Z,6.55
2018-07-12T05:15:56.391Z,7.55
2018-07-12T05:18:23.634Z,5.95
2018-07-12T05:20:50.866Z,7.03
2018-07-12T05:23:18.089Z,7.08
2018-07-12T05:25:45.325Z,7.95
2018-07-12T05:28:12.974Z,7.35
2018-07-12T05:30:40.208Z,6.75
2018-07-12T05:33:07.439Z,6.45
2018-07-12T05:35:36.516Z,7.17
2018-07-12T05:38:05.618Z,6.55
2018-07-12T05:40:34.590Z,6.53
2018-07-12T05:43:02.810Z,6.28
2018-07-12T05:45:31.061Z,5.92
2018-07-12T05:47:59.350Z,6.33
2018-07-12T05:50:27.592Z,6.37
2018-07-12T05:52:56.104Z,6.50
2018-07-12T05:55:24.563Z,6.10
2018-07-12T05:57:52.952Z,6.03
2018-07-12T06:00:21.961Z,5.95
2018-07-12T06:02:50.209Z,6.00
2018-07-12T06:05:19.137Z,5.97
2018-07-12T06:07:47.362Z,7.22
2018-07-12T06:10:15.627Z,6.87
2018-07-12T06:12:44.346Z,6.28
2018-07-12T06:15:12.615Z,7.10
2018-07-12T06:17:40.908Z,6.58
2018-07-12T06:20:09.953Z,6.37
2018-07-12T06:22:38.190Z,7.10
2018-07-12T06:25:07.340Z,8.58
2018-07-12T06:27:35.994Z,6.75
2018-07-12T06:30:04.825Z,6.08
2018-07-12T06:32:33.010Z,6.70
2018-07-12T06:35:05.105Z,6.30
2018-07-12T06:37:38.869Z,6.05
2018-07-12T06:40:07.113Z,5.17
2018-07-12T06:42:35.400Z,6.35
2018-07-12T06:45:03.690Z,5.92
2018-07-12T06:47:31.937Z,7.28
2018-07-12T06:50:00.720Z,7.42
2018-07-12T06:52:29.315Z,6.12
2018-07-12T06:54:57.545Z,6.30
2018-07-12T06:57:25.786Z,7.70
2018-07-12T06:59:54.117Z,7.25
2018-07-12T07:02:22.806Z,7.95
2018-07-12T07:04:51.057Z,7.20
2018-07-12T07:07:19.302Z,5.83
2018-07-12T07:09:47.920Z,5.97
2018-07-12T07:12:16.550Z,5.95
2018-07-12T07:14:44.770Z,6.47
2018-07-12T07:17:14.699Z,6.47
2018-07-12T07:19:42.945Z,7.15
2018-07-12T07:22:11.262Z,5.92
2018-07-12T07:24:39.496Z,5.40
2018-07-12T07:27:07.742Z,5.97
2018-07-12T07:29:36.074Z,5.17
2018-07-12T07:32:04.368Z,4.87
2018-07-12T07:34:32.635Z,4.80
2018-07-12T07:37:01.715Z,5.85
2018-07-12T07:39:30.598Z,4.47
2018-07-12T07:41:58.839Z,4.45
2018-07-12T07:44:27.137Z,4.20
2018-07-12T07:46:55.394Z,4.55
2018-07-12T07:49:23.712Z,3.85
2018-07-12T07:51:52.266Z,4.12
2018-07-12T07:54:20.513Z,5.65
2018-07-12T07:56:48.746Z,4.50
2018-07-12T07:59:17.037Z,6.00
2018-07-12T08:01:45.294Z,5.50
2018-07-12T08:04:14.087Z,4.30
2018-07-12T08:06:42.370Z,5.08
2018-07-12T08:09:10.599Z,4.85
2018-07-12T08:11:42.513Z,4.50
2018-07-12T08:14:10.770Z,4.17
2018-07-12T08:16:39.043Z,5.03
2018-07-12T08:19:07.303Z,4.58
2018-07-12T08:21:36.370Z,3.95
2018-07-12T08:24:04.638Z,4.60
2018-07-12T08:26:33.473Z,7.35
2018-07-12T08:29:01.802Z,4.45
2018-07-12T08:31:30.085Z,3.65
2018-07-12T08:33:58.426Z,3.83
2018-07-12T08:36:26.687Z,4.85
2018-07-12T08:38:55.352Z,3.58
2018-07-12T08:41:23.645Z,3.70
2018-07-12T08:43:51.898Z,8.73
2018-07-12T08:46:20.216Z,2.83
2018-07-12T08:48:48.449Z,3.67
2018-07-12T08:51:17.080Z,4.20
2018-07-12T08:53:45.679Z,5.70
2018-07-12T08:56:13.926Z,3.55
2018-07-12T08:58:42.198Z,4.05
2018-07-12T09:01:11.098Z,3.67
2018-07-12T09:03:39.355Z,4.20
2018-07-12T09:06:07.689Z,6.37
2018-07-12T09:08:35.934Z,5.33
2018-07-12T09:11:04.197Z,4.00
2018-07-12T09:13:34.111Z,4.22
2018-07-12T09:16:02.818Z,4.72
2018-07-12T09:21:05.849Z,4.10
2018-07-12T09:23:37.593Z,5.62
2018-07-12T09:26:05.846Z,5.47
2018-07-12T09:28:34.103Z,4.60
2018-07-12T09:31:02.354Z,7.72
2018-07-12T09:33:30.578Z,4.30
2018-07-12T09:35:58.923Z,4.22
2018-07-12T09:38:43.994Z,3.33
2018-07-12T09:41:12.476Z,2.90
2018-07-12T09:43:41.898Z,2.67
2018-07-12T09:46:10.127Z,2.65
2018-07-12T09:48:40.493Z,2.47
2018-07-12T09:51:09.703Z,2.15
2018-07-12T09:53:39.557Z,2.50
2018-07-12T09:56:08.004Z,1.98
2018-07-12T09:58:36.141Z,2.30
2018-07-12T10:01:10.645Z,3.10
2018-07-12T10:03:45.205Z,2.27
2018-07-12T10:06:18.729Z,2.80
2018-07-12T10:08:52.420Z,2.85
2018-07-12T10:11:27.144Z,2.40
2018-07-12T10:14:03.242Z,2.15
2018-07-12T10:16:36.913Z,2.37
2018-07-12T10:19:05.190Z,2.85
2018-07-12T10:21:33.442Z,2.83
2018-07-12T10:24:01.755Z,3.10
2018-07-12T10:26:30.022Z,2.60
2018-07-12T10:28:58.462Z,2.85
2018-07-12T10:31:26.685Z,2.77
2018-07-12T10:33:54.994Z,2.87
2018-07-12T10:36:23.554Z,3.98
2018-07-12T10:38:52.396Z,2.80
2018-07-12T10:41:20.647Z,2.30
2018-07-12T10:43:48.890Z,1.90
2018-07-12T10:46:17.475Z,2.08
2018-07-12T10:48:45.747Z,3.50
2018-07-12T10:51:13.985Z,3.12
2018-07-12T10:53:42.802Z,4.10
2018-07-12T10:56:11.133Z,2.22
2018-07-12T10:58:39.369Z,2.15
2018-07-12T11:01:08.242Z,1.90
2018-07-12T11:03:36.494Z,1.80
2018-07-12T11:06:04.825Z,2.10
2018-07-12T11:08:33.246Z,3.10
2018-07-12T11:11:01.509Z,1.70
2018-07-12T11:13:41.866Z,1.82
2018-07-12T11:16:10.080Z,1.70
2018-07-12T11:18:40.797Z,1.75
2018-07-12T11:21:16.258Z,1.80
2018-07-12T11:23:44.494Z,1.80
2018-07-12T11:26:13.100Z,2.90
2018-07-12T11:28:41.730Z,1.65
2018-07-12T11:31:09.969Z,2.33
2018-07-12T11:33:40.325Z,1.60
2018-07-12T11:36:08.932Z,1.70
2018-07-12T11:38:38.506Z,1.77
2018-07-12T11:41:07.250Z,1.37
2018-07-12T11:43:36.086Z,1.62
2018-07-12T11:46:11.122Z,1.60
2018-07-12T11:48:40.330Z,1.92
2018-07-12T11:51:08.593Z,1.72
2018-07-12T11:53:37.130Z,3.08
2018-07-12T11:56:05.369Z,1.80
2018-07-12T12:01:20.219Z,1.55
2018-07-12T12:03:48.466Z,1.27
2018-07-12T12:06:16.714Z,1.42
2018-07-12T12:08:44.979Z,1.20
2018-07-12T12:11:13.274Z,1.22
2018-07-12T12:13:42.023Z,1.30
2018-07-12T12:16:10.277Z,1.20
2018-07-12T12:18:39.049Z,3.33
2018-07-12T12:21:07.346Z,1.40
2018-07-12T12:23:35.599Z,1.45
2018-07-12T12:26:03.857Z,1.80
2018-07-12T12:28:32.830Z,1.85
2018-07-12T12:31:01.097Z,1.80
2018-07-12T12:33:29.380Z,3.25
2018-07-12T12:35:58.200Z,2.05
2018-07-12T12:38:26.949Z,1.65
2018-07-12T12:40:55.242Z,2.20
2018-07-12T12:43:23.515Z,1.17
2018-07-12T12:45:51.793Z,3.35
2018-07-12T12:48:20.060Z,1.80
2018-07-12T12:50:48.405Z,1.15
2018-07-12T12:53:17.375Z,2.52
2018-07-12T12:55:45.466Z,1.40
2018-07-12T12:58:13.702Z,1.70
2018-07-12T13:00:42.309Z,1.42
2018-07-12T13:03:10.558Z,3.42
2018-07-12T13:05:38.808Z,2.35
2018-07-12T13:08:07.107Z,2.77
2018-07-12T13:10:35.566Z,2.40
2018-07-12T13:13:04.425Z,2.20
2018-07-12T13:15:32.687Z,1.67
2018-07-12T13:18:00.925Z,1.70
2018-07-12T13:20:29.750Z,1.62
2018-07-12T13:25:32.151Z,1.50
2018-07-12T13:28:00.450Z,2.37
2018-07-12T13:30:28.642Z,1.60
2018-07-12T13:32:56.894Z,3.10
2018-07-12T13:35:25.110Z,2.25
2018-07-12T13:37:53.349Z,1.95
2018-07-12T13:40:21.593Z,1.82
2018-07-12T13:42:49.840Z,1.92
2018-07-12T13:45:18.113Z,2.17
2018-07-12T13:47:46.378Z,1.87
2018-07-12T13:50:14.723Z,1.65
2018-07-12T13:52:43.533Z,2.00
2018-07-12T13:55:11.796Z,2.30
2018-07-12T13:57:40.022Z,2.20
2018-07-12T14:00:08.654Z,1.95
2018-07-12T14:02:36.633Z,2.02
2018-07-12T14:05:05.195Z,1.90
2018-07-12T14:07:33.366Z,1.72
2018-07-12T14:10:01.614Z,2.12
2018-07-12T14:12:30.270Z,4.15
2018-07-12T14:14:59.109Z,2.33
2018-07-12T14:17:27.386Z,3.77
2018-07-12T14:19:55.769Z,2.70
2018-07-12T14:22:24.066Z,1.90
2018-07-12T14:24:52.665Z,1.95
2018-07-12T14:27:20.934Z,1.98
2018-07-12T14:29:49.231Z,2.25
2018-07-12T14:32:17.642Z,2.83
2018-07-12T14:34:45.634Z,2.05
2018-07-12T14:37:14.129Z,3.50
2018-07-12T14:39:43.017Z,3.10
2018-07-12T14:42:11.252Z,1.90
2018-07-12T14:44:39.512Z,1.60
2018-07-12T14:47:07.955Z,3.60
2018-07-12T14:49:36.169Z,1.92
2018-07-12T14:52:04.657Z,2.20
2018-07-12T14:54:32.912Z,1.62
2018-07-12T14:57:01.165Z,3.67
2018-07-12T14:59:29.852Z,2.02
2018-07-12T15:01:58.499Z,2.25
2018-07-12T15:04:27.180Z,2.10
2018-07-12T15:06:55.752Z,2.00
2018-07-12T15:09:24.105Z,3.10
2018-07-12T15:11:52.766Z,1.77
2018-07-12T15:14:20.998Z,2.90
2018-07-12T15:16:49.310Z,2.55
2018-07-12T15:19:17.287Z,2.98
2018-07-12T15:21:45.521Z,2.52
2018-07-12T15:24:14.192Z,2.20
2018-07-12T15:26:42.441Z,1.90
2018-07-12T15:29:10.710Z,1.80
2018-07-12T15:31:39.184Z,2.60
2018-07-12T15:34:07.373Z,1.67
2018-07-12T15:36:35.673Z,3.10
2018-07-12T15:39:05.334Z,1.98
2018-07-12T15:44:24.669Z,1.90
2018-07-12T15:46:52.871Z,2.90
2018-07-12T15:49:27.018Z,2.67
2018-07-12T15:51:55.603Z,2.02
2018-07-12T15:54:23.802Z,2.00
2018-07-12T15:56:52.049Z,1.87
2018-07-12T15:59:20.552Z,2.20
2018-07-12T16:01:49.173Z,1.98
2018-07-12T16:06:52.255Z,2.80
2018-07-12T16:09:20.935Z,2.02
2018-07-12T16:11:50.165Z,2.25
2018-07-12T16:14:19.030Z,2.10
2018-07-12T16:16:47.533Z,2.35
2018-07-12T16:19:16.280Z,2.15
2018-07-12T16:21:44.440Z,2.15
2018-07-12T16:24:13.431Z,1.85
2018-07-12T16:26:41.640Z,1.80
2018-07-12T16:29:09.879Z,2.33
2018-07-12T16:31:41.515Z,2.02
2018-07-12T16:34:09.796Z,2.50
2018-07-12T16:39:12.219Z,2.95
2018-07-12T16:41:40.431Z,1.90
2018-07-12T16:44:09.083Z,2.70
2018-07-12T16:46:37.287Z,2.25
2018-07-12T16:49:05.519Z,2.67
2018-07-12T16:51:34.070Z,1.90
2018-07-12T16:54:02.523Z,2.42
2018-07-12T16:56:30.707Z,2.58
2018-07-12T16:58:58.950Z,3.08
2018-07-12T17:01:27.162Z,2.02
2018-07-12T17:03:55.367Z,1.90
2018-07-12T17:06:23.606Z,1.90
2018-07-12T17:08:51.825Z,3.05
2018-07-12T17:11:20.431Z,3.08
2018-07-12T17:13:49.075Z,1.92
2018-07-12T17:16:17.269Z,1.85
2018-07-12T17:18:45.483Z,1.90
2018-07-12T17:21:13.470Z,2.10
2018-07-12T17:23:42.175Z,2.30
2018-07-12T17:26:11.475Z,2.10
2018-07-12T17:28:39.702Z,5.03
2018-07-12T17:31:07.912Z,2.12
2018-07-12T17:33:36.643Z,2.08
2018-07-12T17:36:04.939Z,2.17
2018-07-12T17:38:33.666Z,2.05
2018-07-12T17:41:02.361Z,3.40
2018-07-12T17:43:30.657Z,2.27
2018-07-12T17:45:59.198Z,1.98
2018-07-12T17:48:27.868Z,4.05
2018-07-12T17:50:56.355Z,2.12
2018-07-12T17:53:25.075Z,2.08
2018-07-12T17:55:53.308Z,2.27
2018-07-12T17:58:21.515Z,1.95
2018-07-12T18:00:52.268Z,2.30
2018-07-12T18:03:20.495Z,2.12
2018-07-12T18:05:48.747Z,2.33
2018-07-12T18:08:16.990Z,2.45
2018-07-12T18:10:45.608Z,2.42
2018-07-12T18:13:14.198Z,2.00
2018-07-12T18:18:08.799Z,2.00
2018-07-12T18:20:37.020Z,1.92
2018-07-12T18:23:06.198Z,2.62
2018-07-12T18:25:34.395Z,2.30
2018-07-12T18:28:02.375Z,1.95
2018-07-12T18:30:30.768Z,2.22
2018-07-12T18:32:59.339Z,2.77
2018-07-12T18:35:27.563Z,2.15
2018-07-12T18:37:56.328Z,2.55
2018-07-12T18:40:24.296Z,2.30
2018-07-12T18:42:52.343Z,2.10
2018-07-12T18:45:21.189Z,2.00
2018-07-12T18:47:49.559Z,2.35
2018-07-12T18:50:24.863Z,2.20
2018-07-12T18:52:53.483Z,2.58
2018-07-12T18:55:21.727Z,4.90
2018-07-12T18:57:49.960Z,4.42
2018-07-12T19:00:18.201Z,3.58
2018-07-12T19:02:46.788Z,4.53
2018-07-12T19:05:15.008Z,3.22
2018-07-12T19:07:43.248Z,4.25
2018-07-12T19:10:11.490Z,5.62
2018-07-12T19:12:40.138Z,4.42
2018-07-12T19:15:08.250Z,5.22
2018-07-12T19:17:36.609Z,5.20
2018-07-12T19:20:05.224Z,4.30
2018-07-12T19:22:33.411Z,4.03
2018-07-12T19:25:02.217Z,7.25
2018-07-12T19:27:30.411Z,6.65
2018-07-12T19:29:59.102Z,8.53
2018-07-12T19:32:33.886Z,5.70
2018-07-12T19:35:02.219Z,7.80
2018-07-12T19:37:30.591Z,7.25
2018-07-12T19:39:58.822Z,8.65
2018-07-12T19:42:26.738Z,6.83
2018-07-12T19:44:55.372Z,4.08
2018-07-12T19:47:23.638Z,4.92
2018-07-12T19:49:51.798Z,6.03
2018-07-12T19:52:20.339Z,3.67
2018-07-12T19:54:48.541Z,3.83
2018-07-12T19:57:16.746Z,4.80
2018-07-12T19:59:45.376Z,3.98
2018-07-12T20:02:13.596Z,3.42
2018-07-12T20:04:43.231Z,3.98
2018-07-12T20:07:11.895Z,4.83
2018-07-12T20:09:40.144Z,3.22
2018-07-12T20:12:08.886Z,2.83
2018-07-12T20:14:37.079Z,2.92
2018-07-12T20:17:05.678Z,3.17
2018-07-12T20:19:33.646Z,4.90
2018-07-12T20:22:01.863Z,4.08
2018-07-12T20:24:30.119Z,3.95
2018-07-12T20:26:58.416Z,5.20
2018-07-12T20:29:26.649Z,2.87
2018-07-12T20:31:55.321Z,3.50
2018-07-12T20:34:23.975Z,3.00
2018-07-12T20:36:52.229Z,3.92
2018-07-12T20:39:20.411Z,3.80
2018-07-12T20:41:48.681Z,3.12
2018-07-12T20:44:17.547Z,3.70
2018-07-12T20:46:45.734Z,6.05
2018-07-12T20:49:14.004Z,3.50
2018-07-12T20:51:48.578Z,3.62
2018-07-12T20:54:16.709Z,5.45
2018-07-12T20:56:45.195Z,3.30
2018-07-12T20:59:13.700Z,3.30
2018-07-12T21:01:41.900Z,3.10
2018-07-12T21:04:09.995Z,3.22
2018-07-12T21:06:38.521Z,3.10
2018-07-12T21:09:07.546Z,3.08
2018-07-12T21:11:43.493Z,3.22
2018-07-12T21:14:11.706Z,3.33
2018-07-12T21:16:39.975Z,3.08
2018-07-12T21:22:39.349Z,3.35
2018-07-12T21:25:07.707Z,3.40
2018-07-12T21:27:35.935Z,3.10
2018-07-12T21:30:06.631Z,4.17
2018-07-12T21:32:35.534Z,3.67
2018-07-12T21:35:04.170Z,3.30
2018-07-12T21:37:32.392Z,3.27
2018-07-12T21:40:00.839Z,3.27
2018-07-12T21:42:29.096Z,3.47
2018-07-12T21:44:57.951Z,3.40
2018-07-12T21:47:32.470Z,3.30
2018-07-12T21:50:00.702Z,3.08
2018-07-12T21:52:29.588Z,3.72
2018-07-12T21:54:57.800Z,3.02
2018-07-12T21:57:26.004Z,3.55
2018-07-12T21:59:54.647Z,2.77
2018-07-12T22:02:23.058Z,3.27
2018-07-12T22:04:51.307Z,3.40
2018-07-12T22:08:23.922Z,3.47
2018-07-12T22:10:58.069Z,3.17
2018-07-12T22:13:27.540Z,4.22
2018-07-12T22:15:55.758Z,3.05
2018-07-12T23:02:04.503Z,3.12
2018-07-12T23:04:32.978Z,3.22
2018-07-12T23:07:01.176Z,3.08
2018-07-12T23:09:29.387Z,3.17
2018-07-12T23:11:57.810Z,3.30
2018-07-12T23:14:26.080Z,3.10
2018-07-12T23:16:54.880Z,4.28
2018-07-12T23:19:23.412Z,3.05
2018-07-12T23:21:51.631Z,3.67
2018-07-12T23:24:20.246Z,3.40
2018-07-12T23:26:48.459Z,3.30
2018-07-12T23:29:16.646Z,3.35
2018-07-12T23:31:45.360Z,3.50
2018-07-12T23:34:13.566Z,3.35
2018-07-12T23:36:41.768Z,4.45
2018-07-12T23:39:10.280Z,3.25
2018-07-12T23:41:39.180Z,3.87
2018-07-12T23:44:07.371Z,3.17
2018-07-12T23:46:36.139Z,3.58
2018-07-12T23:49:04.512Z,3.27
2018-07-12T23:51:33.522Z,3.75
2018-07-12T23:54:02.390Z,4.12
2018-07-12T23:56:30.726Z,3.33
2018-07-12T23:58:59.594Z,3.67
